createdAt,value
2018-04-19T00:00:04.710Z,13.23
2018-04-19T00:02:32.252Z,11.27
2018-04-19T00:04:59.804Z,12.20
2018-04-19T00:07:27.377Z,11.93
2018-04-19T00:09:54.937Z,13.80
2018-04-19T00:12:22.504Z,12.20
2018-04-19T00:14:50.073Z,11.95
2018-04-19T00:17:17.662Z,14.20
2018-04-19T00:19:45.242Z,12.63
2018-04-19T00:22:12.903Z,13.75
2018-04-19T00:24:40.477Z,15.10
2018-04-19T00:27:08.072Z,13.52
2018-04-19T00:29:35.624Z,13.60
2018-04-19T00:32:03.192Z,11.77
2018-04-19T00:34:30.781Z,13.02
2018-04-19T00:36:58.346Z,12.25
2018-04-19T00:39:25.917Z,13.50
2018-04-19T00:41:53.512Z,13.50
2018-04-19T00:44:21.128Z,14.18
2018-04-19T00:46:48.742Z,14.20
2018-04-19T00:49:16.333Z,13.40
2018-04-19T00:51:44.667Z,12.77
2018-04-19T00:54:12.246Z,13.82
2018-04-19T00:56:39.801Z,14.60
2018-04-19T00:59:07.373Z,13.13
2018-04-19T01:01:34.925Z,14.07
2018-04-19T01:04:03.269Z,15.10
2018-04-19T01:06:30.821Z,14.00
2018-04-19T01:08:58.413Z,13.52
2018-04-19T01:11:25.981Z,14.18
2018-04-19T01:13:53.575Z,14.35
2018-04-19T01:16:21.146Z,15.38
2018-04-19T01:18:48.782Z,14.20
2018-04-19T01:21:16.350Z,14.23
2018-04-19T01:23:43.945Z,14.13
2018-04-19T01:26:11.525Z,14.90
2018-04-19T01:28:39.073Z,14.18
2018-04-19T01:31:06.650Z,16.00
2018-04-19T01:33:34.205Z,14.73
2018-04-19T01:36:13.741Z,13.95
2018-04-19T01:38:41.357Z,13.75
2018-04-19T01:41:08.908Z,13.93
2018-04-19T01:43:36.473Z,14.15
2018-04-19T01:46:04.047Z,14.48
2018-04-19T01:48:31.601Z,11.63
2018-04-19T01:50:59.177Z,12.30
2018-04-19T01:53:26.733Z,11.20
2018-04-19T01:55:55.125Z,10.63
2018-04-19T01:58:23.462Z,11.70
2018-04-19T02:00:51.497Z,13.77
2018-04-19T02:03:19.857Z,12.68
2018-04-19T02:05:47.463Z,13.23
2018-04-19T02:08:15.045Z,12.70
2018-04-19T02:10:42.638Z,13.30
2018-04-19T02:13:10.230Z,12.45
2018-04-19T02:15:37.793Z,13.82
2018-04-19T02:18:05.370Z,13.88
2018-04-19T02:20:32.930Z,12.57
2018-04-19T02:23:00.514Z,14.30
2018-04-19T02:25:28.066Z,13.52
2018-04-19T02:27:55.668Z,13.60
2018-04-19T02:30:23.239Z,13.93
2018-04-19T02:32:50.855Z,15.50
2018-04-19T02:35:19.269Z,15.30
2018-04-19T02:37:46.881Z,14.00
2018-04-19T02:40:14.502Z,12.98
2018-04-19T02:42:42.071Z,14.30
2018-04-19T02:45:10.428Z,13.98
2018-04-19T02:47:38.017Z,13.75
2018-04-19T02:50:06.379Z,11.82
2018-04-19T02:52:33.936Z,13.13
2018-04-19T02:55:01.509Z,12.32
2018-04-19T02:57:29.074Z,11.75
2018-04-19T02:59:56.654Z,12.52
2018-04-19T03:02:24.205Z,14.10
2018-04-19T03:04:51.817Z,15.07
2018-04-19T03:07:19.386Z,15.63
2018-04-19T03:09:47.734Z,14.75
2018-04-19T03:12:15.362Z,15.05
2018-04-19T03:14:43.748Z,15.60
2018-04-19T03:17:11.333Z,14.27
2018-04-19T03:19:38.889Z,13.62
2018-04-19T03:22:06.470Z,14.75
2018-04-19T03:24:34.035Z,14.00
2018-04-19T03:27:01.613Z,13.02
2018-04-19T03:29:29.166Z,12.77
2018-04-19T03:31:56.741Z,12.10
2018-04-19T03:34:24.300Z,17.02
2018-04-19T03:36:51.890Z,13.85
2018-04-19T03:39:19.535Z,16.45
2018-04-19T03:41:47.183Z,15.85
2018-04-19T03:44:14.891Z,14.95
2018-04-19T03:46:43.248Z,15.38
2018-04-19T03:49:10.824Z,15.00
2018-04-19T03:51:38.389Z,12.63
2018-04-19T03:54:06.734Z,13.45
2018-04-19T03:56:34.293Z,14.13
2018-04-19T03:59:02.034Z,11.70
2018-04-19T04:01:30.369Z,11.80
2018-04-19T04:03:57.946Z,11.43
2018-04-19T04:06:25.566Z,13.27
2018-04-19T04:08:53.970Z,14.90
2018-04-19T04:11:21.557Z,12.20
2018-04-19T04:13:49.200Z,14.00
2018-04-19T04:16:29.107Z,12.02
2018-04-19T04:19:08.538Z,12.90
2018-04-19T04:21:48.097Z,11.18
2018-04-19T04:24:15.929Z,12.23
2018-04-19T04:26:43.578Z,13.75
2018-04-19T04:29:11.145Z,14.68
2018-04-19T04:31:39.547Z,10.70
2018-04-19T04:34:07.121Z,10.07
2018-04-19T04:36:34.738Z,11.07
2018-04-19T04:39:02.305Z,12.23
2018-04-19T04:41:30.666Z,13.13
2018-04-19T04:43:58.258Z,14.77
2018-04-19T04:46:26.631Z,12.73
2018-04-19T04:48:54.213Z,12.77
2018-04-19T04:51:22.647Z,12.85
2018-04-19T04:53:50.348Z,11.80
2018-04-19T04:56:17.988Z,11.77
2018-04-19T04:58:45.617Z,11.98
2018-04-19T05:01:13.195Z,11.85
2018-04-19T05:03:41.593Z,12.63
2018-04-19T05:06:09.927Z,13.05
2018-04-19T05:08:37.507Z,12.63
2018-04-19T05:11:05.073Z,12.65
2018-04-19T05:13:32.648Z,12.63
2018-04-19T05:16:00.229Z,12.02
2018-04-19T05:18:27.786Z,12.00
2018-04-19T05:20:55.377Z,11.82
2018-04-19T05:23:23.022Z,12.57
2018-04-19T05:25:50.695Z,12.88
2018-04-19T05:28:18.285Z,14.40
2018-04-19T05:30:46.033Z,12.55
2018-04-19T05:33:14.101Z,13.25
2018-04-19T05:35:41.741Z,12.55
2018-04-19T05:38:09.293Z,11.93
2018-04-19T05:40:36.958Z,13.10
2018-04-19T05:43:04.513Z,13.90
2018-04-19T05:45:32.204Z,13.02
2018-04-19T05:47:59.830Z,13.82
2018-04-19T05:50:27.552Z,12.10
2018-04-19T05:52:55.255Z,14.43
2018-04-19T05:55:22.849Z,15.18
2018-04-19T05:57:50.564Z,14.80
2018-04-19T06:00:18.140Z,16.00
2018-04-19T06:02:45.943Z,15.18
2018-04-19T06:05:13.583Z,15.45
2018-04-19T06:07:41.197Z,16.85
2018-04-19T06:10:08.785Z,17.98
2018-04-19T06:12:36.454Z,17.85
2018-04-19T06:15:04.027Z,17.60
2018-04-19T06:17:31.697Z,17.95
2018-04-19T06:19:59.460Z,16.08
2018-04-19T06:22:27.058Z,16.83
2018-04-19T06:24:54.780Z,17.27
2018-04-19T06:27:22.406Z,16.98
2018-04-19T06:29:50.737Z,17.12
2018-04-19T06:32:18.313Z,18.45
2018-04-19T06:34:45.901Z,16.37
2018-04-19T06:37:13.461Z,16.60
2018-04-19T06:39:41.042Z,17.02
2018-04-19T06:42:08.616Z,16.85
2018-04-19T06:44:36.231Z,17.15
2018-04-19T06:47:03.838Z,18.27
2018-04-19T06:49:32.229Z,18.83
2018-04-19T06:51:59.817Z,18.10
2018-04-19T06:54:27.410Z,17.50
2018-04-19T06:56:55.027Z,17.12
2018-04-19T06:59:23.413Z,17.87
2018-04-19T07:01:50.986Z,17.02
2018-04-19T07:04:18.579Z,16.87
2018-04-19T07:06:46.910Z,16.40
2018-04-19T07:09:14.513Z,16.67
2018-04-19T07:11:42.829Z,17.25
2018-04-19T07:14:11.162Z,16.37
2018-04-19T07:16:38.749Z,16.27
2018-04-19T07:19:06.328Z,15.27
2018-04-19T07:21:33.962Z,16.67
2018-04-19T07:24:01.570Z,15.50
2018-04-19T07:26:29.218Z,16.62
2018-04-19T07:28:56.821Z,16.15
2018-04-19T07:31:24.427Z,15.65
2018-04-19T07:33:52.773Z,17.17
2018-04-19T07:36:20.369Z,16.17
2018-04-19T07:38:47.942Z,17.05
2018-04-19T07:41:15.537Z,16.90
2018-04-19T07:43:45.031Z,14.55
2018-04-19T07:46:12.625Z,16.92
2018-04-19T07:48:40.970Z,15.95
2018-04-19T07:51:08.585Z,16.00
2018-04-19T07:53:36.954Z,17.37
2018-04-19T07:56:04.545Z,18.50
2018-04-19T07:58:32.253Z,16.10
2018-04-19T08:00:59.872Z,16.45
2018-04-19T08:03:27.461Z,16.87
2018-04-19T08:05:55.802Z,18.10
2018-04-19T08:08:23.401Z,17.10
2018-04-19T08:10:51.795Z,18.27
2018-04-19T08:13:19.501Z,18.90
2018-04-19T08:15:47.841Z,18.55
2018-04-19T08:18:15.418Z,19.47
2018-04-19T08:20:42.990Z,17.37
2018-04-19T08:23:10.578Z,18.97
2018-04-19T08:25:38.905Z,17.90
2018-04-19T08:28:07.269Z,17.50
2018-04-19T08:30:34.885Z,18.17
2018-04-19T08:33:02.556Z,16.90
2018-04-19T08:35:30.211Z,17.73
2018-04-19T08:37:58.583Z,16.53
2018-04-19T08:40:26.186Z,14.23
2018-04-19T08:42:53.804Z,16.90
2018-04-19T08:45:21.365Z,17.20
2018-04-19T08:47:48.927Z,17.17
2018-04-19T08:50:16.522Z,15.10
2018-04-19T08:52:44.086Z,14.03
2018-04-19T08:55:11.666Z,16.17
2018-04-19T08:57:39.254Z,14.80
2018-04-19T09:00:06.877Z,14.17
2018-04-19T09:02:34.500Z,13.80
2018-04-19T09:05:02.141Z,14.70
2018-04-19T09:07:29.720Z,13.90
2018-04-19T09:09:57.308Z,13.77
2018-04-19T09:12:24.878Z,13.80
2018-04-19T09:14:53.341Z,11.23
2018-04-19T09:17:20.927Z,13.07
2018-04-19T09:19:48.596Z,12.87
2018-04-19T09:22:16.222Z,12.87
2018-04-19T09:24:44.564Z,11.33
2018-04-19T09:27:12.162Z,12.07
2018-04-19T09:29:41.079Z,12.47
2018-04-19T09:32:08.650Z,11.30
2018-04-19T09:34:36.228Z,11.37
2018-04-19T09:37:03.818Z,11.30
2018-04-19T09:39:32.161Z,11.03
2018-04-19T09:42:00.530Z,12.70
2018-04-19T09:44:28.098Z,11.60
2018-04-19T09:46:55.686Z,12.40
2018-04-19T09:49:23.252Z,11.70
2018-04-19T09:51:50.862Z,11.83
2018-04-19T09:54:18.504Z,10.73
2018-04-19T09:56:46.162Z,12.13
2018-04-19T09:59:13.773Z,10.80
2018-04-19T10:01:46.988Z,11.37
2018-04-19T10:04:14.618Z,10.97
2018-04-19T10:06:42.205Z,9.33
2018-04-19T10:09:09.791Z,10.67
2018-04-19T10:11:37.352Z,10.20
2018-04-19T10:14:04.934Z,9.00
2018-04-19T10:16:32.506Z,9.90
2018-04-19T10:19:00.102Z,9.20
2018-04-19T10:21:27.845Z,10.30
2018-04-19T10:23:55.426Z,8.23
2018-04-19T10:26:23.019Z,8.60
2018-04-19T10:28:50.614Z,8.30
2018-04-19T10:31:18.945Z,8.30
2018-04-19T10:33:46.660Z,8.10
2018-04-19T10:36:14.198Z,8.23
2018-04-19T10:38:41.781Z,8.20
2018-04-19T10:41:09.347Z,7.80
2018-04-19T10:43:36.941Z,8.80
2018-04-19T10:46:05.271Z,9.20
2018-04-19T10:48:33.610Z,9.70
2018-04-19T10:51:01.197Z,8.93
2018-04-19T10:53:28.776Z,9.50
2018-04-19T10:55:56.436Z,9.60
2018-04-19T10:58:24.687Z,9.00
2018-04-19T11:00:52.285Z,9.07
2018-04-19T11:03:21.393Z,8.40
2018-04-19T11:05:49.749Z,7.03
2018-04-19T11:08:17.370Z,6.40
2018-04-19T11:10:45.128Z,7.57
2018-04-19T11:13:12.701Z,6.17
2018-04-19T11:15:40.289Z,6.73
2018-04-19T11:18:07.849Z,7.03
2018-04-19T11:20:35.426Z,7.30
2018-04-19T11:23:02.977Z,7.13
2018-04-19T11:25:31.489Z,6.53
2018-04-19T11:27:59.044Z,5.63
2018-04-19T11:30:26.622Z,6.43
2018-04-19T11:32:54.178Z,6.87
2018-04-19T11:35:21.770Z,7.00
2018-04-19T11:37:49.404Z,5.10
2018-04-19T11:40:17.782Z,4.63
2018-04-19T11:42:46.427Z,6.00
2018-04-19T11:45:14.087Z,5.27
2018-04-19T11:47:41.697Z,6.67
2018-04-19T11:50:10.055Z,5.13
2018-04-19T11:52:37.629Z,5.63
2018-04-19T11:55:05.194Z,4.70
2018-04-19T11:57:32.769Z,5.33
2018-04-19T12:00:00.330Z,6.13
2018-04-19T12:02:28.686Z,5.50
2018-04-19T12:04:56.254Z,4.10
2018-04-19T12:07:23.869Z,5.60
2018-04-19T12:09:51.447Z,7.10
2018-04-19T12:12:19.144Z,5.70
2018-04-19T12:14:46.746Z,5.80
2018-04-19T12:17:14.347Z,6.47
2018-04-19T12:19:41.954Z,6.30
2018-04-19T12:22:09.511Z,5.33
2018-04-19T12:24:37.106Z,5.17
2018-04-19T12:27:04.661Z,6.23
2018-04-19T12:29:32.238Z,8.17
2018-04-19T12:31:59.797Z,7.37
2018-04-19T12:34:27.378Z,6.80
2018-04-19T12:36:54.933Z,5.50
2018-04-19T12:39:22.518Z,5.60
2018-04-19T12:41:50.105Z,5.47
2018-04-19T12:44:17.738Z,4.80
2018-04-19T12:46:46.081Z,5.03
2018-04-19T12:49:14.265Z,6.67
2018-04-19T12:51:41.865Z,8.27
2018-04-19T12:54:09.430Z,7.83
2018-04-19T12:56:37.774Z,7.13
2018-04-19T12:59:06.212Z,6.87
2018-04-19T13:01:33.806Z,7.63
2018-04-19T13:04:01.372Z,6.23
2018-04-19T13:06:28.959Z,6.70
2018-04-19T13:08:57.290Z,7.30
2018-04-19T13:11:28.637Z,6.97
2018-04-19T13:13:56.190Z,7.60
2018-04-19T13:16:24.542Z,7.37
2018-04-19T13:18:52.105Z,6.53
2018-04-19T13:21:19.716Z,7.07
2018-04-19T13:23:49.121Z,7.07
2018-04-19T13:26:17.506Z,8.47
2018-04-19T13:28:46.138Z,7.80
2018-04-19T13:31:15.058Z,7.30
2018-04-19T13:33:42.645Z,7.40
2018-04-19T13:36:10.260Z,9.47
2018-04-19T13:38:37.829Z,10.80
2018-04-19T13:41:05.391Z,9.63
2018-04-19T13:43:32.974Z,10.50
2018-04-19T13:46:00.529Z,10.70
2018-04-19T13:48:28.109Z,12.00
2018-04-19T13:50:55.709Z,10.40
2018-04-19T13:53:24.074Z,10.73
2018-04-19T13:55:51.677Z,13.77
2018-04-19T13:58:20.053Z,12.10
2018-04-19T14:00:48.434Z,12.73
2018-04-19T14:03:16.308Z,11.80
2018-04-19T14:05:43.992Z,12.23
2018-04-19T14:08:11.629Z,12.80
2018-04-19T14:10:42.987Z,13.10
2018-04-19T14:13:11.407Z,14.67
2018-04-19T14:15:39.318Z,14.43
2018-04-19T14:18:07.665Z,13.00
2018-04-19T14:20:35.230Z,13.63
2018-04-19T14:23:02.790Z,14.37
2018-04-19T14:25:30.378Z,12.40
2018-04-19T14:27:57.933Z,12.70
2018-04-19T14:30:25.514Z,12.50
2018-04-19T14:32:53.195Z,13.10
2018-04-19T14:35:20.799Z,11.70
2018-04-19T14:37:48.397Z,12.50
2018-04-19T14:40:16.038Z,13.07
2018-04-19T14:42:43.720Z,12.13
2018-04-19T14:45:12.161Z,12.03
2018-04-19T14:47:39.741Z,10.90
2018-04-19T14:50:07.326Z,10.63
2018-04-19T14:52:34.892Z,9.97
2018-04-19T14:55:02.473Z,9.70
2018-04-19T14:57:30.034Z,10.20
2018-04-19T14:59:57.608Z,9.63
2018-04-19T15:02:25.204Z,11.00
2018-04-19T15:04:52.841Z,11.07
2018-04-19T15:07:20.420Z,9.30
2018-04-19T15:09:48.080Z,10.40
2018-04-19T15:12:15.833Z,10.03
2018-04-19T15:14:43.472Z,9.90
2018-04-19T15:17:11.903Z,10.10
2018-04-19T15:19:39.519Z,9.83
2018-04-19T15:22:07.139Z,10.30
2018-04-19T15:24:35.481Z,9.70
2018-04-19T15:27:03.061Z,9.50
2018-04-19T15:29:30.630Z,9.83
2018-04-19T15:31:58.245Z,10.90
2018-04-19T15:34:25.863Z,9.97
2018-04-19T15:36:53.454Z,10.57
2018-04-19T15:39:21.126Z,10.60
2018-04-19T15:41:48.977Z,9.77
2018-04-19T15:44:16.655Z,10.53
2018-04-19T15:46:44.424Z,8.87
2018-04-19T15:49:12.064Z,10.10
2018-04-19T15:51:40.152Z,9.80
2018-04-19T15:54:08.514Z,10.07
2018-04-19T15:56:36.088Z,10.17
2018-04-19T15:59:03.734Z,10.07
2018-04-19T16:01:32.939Z,10.40
2018-04-19T16:04:00.530Z,10.27
2018-04-19T16:06:28.087Z,11.30
2018-04-19T16:08:55.706Z,10.20
2018-04-19T16:11:24.805Z,12.07
2018-04-19T16:13:52.479Z,10.70
2018-04-19T16:16:20.117Z,10.90
2018-04-19T16:18:47.791Z,11.60
2018-04-19T16:21:15.486Z,11.43
2018-04-19T16:23:43.128Z,11.50
2018-04-19T16:26:10.706Z,10.77
2018-04-19T16:28:38.315Z,12.33
2018-04-19T16:31:05.886Z,13.23
2018-04-19T16:33:33.496Z,12.60
2018-04-19T16:36:01.076Z,11.87
2018-04-19T16:38:29.401Z,11.97
2018-04-19T16:40:56.982Z,13.70
2018-04-19T16:43:24.561Z,14.33
2018-04-19T16:45:52.218Z,12.40
2018-04-19T16:48:19.812Z,13.50
2018-04-19T16:50:49.565Z,13.40
2018-04-19T16:53:18.061Z,14.00
2018-04-19T16:55:45.829Z,14.50
2018-04-19T16:58:14.298Z,14.37
2018-04-19T17:00:41.947Z,14.73
2018-04-19T17:03:09.546Z,15.23
2018-04-19T17:05:37.975Z,15.27
2018-04-19T17:08:05.552Z,15.50
2018-04-19T17:10:33.905Z,15.20
2018-04-19T17:13:01.475Z,15.30
2018-04-19T17:15:29.071Z,14.37
2018-04-19T17:17:56.662Z,15.73
2018-04-19T17:20:25.024Z,16.57
2018-04-19T17:22:52.609Z,15.17
2018-04-19T17:25:20.217Z,16.50
2018-04-19T17:27:47.860Z,16.03
2018-04-19T17:30:16.304Z,16.80
2018-04-19T17:32:45.280Z,16.00
2018-04-19T17:35:12.877Z,16.07
2018-04-19T17:37:40.485Z,16.67
2018-04-19T17:40:08.052Z,17.50
2018-04-19T17:42:35.637Z,17.03
2018-04-19T17:45:03.201Z,17.00
2018-04-19T17:47:30.780Z,17.83
2018-04-19T17:49:58.341Z,17.93
2018-04-19T17:52:25.962Z,19.30
2018-04-19T17:54:53.559Z,18.03
2018-04-19T17:57:21.249Z,17.27
2018-04-19T17:59:48.827Z,19.50
2018-04-19T18:02:16.590Z,19.63
2018-04-19T18:04:47.525Z,20.17
2018-04-19T18:07:15.213Z,21.17
2018-04-19T18:09:42.801Z,22.47
2018-04-19T18:12:10.371Z,20.30
2018-04-19T18:14:37.950Z,19.70
2018-04-19T18:17:05.509Z,24.83
2018-04-19T18:19:33.093Z,20.23
2018-04-19T18:22:00.661Z,26.77
2018-04-19T18:24:28.251Z,25.17
2018-04-19T18:26:55.845Z,26.00
2018-04-19T18:29:24.240Z,25.00
2018-04-19T18:31:52.609Z,24.90
2018-04-19T18:34:20.399Z,26.03
2018-04-19T18:36:48.143Z,25.70
2018-04-19T18:39:15.848Z,25.70
2018-04-19T18:41:43.447Z,24.00
2018-04-19T18:44:11.344Z,24.23
2018-04-19T18:46:38.913Z,24.87
2018-04-19T18:49:06.501Z,23.10
2018-04-19T18:51:34.071Z,24.50
2018-04-19T18:54:01.665Z,23.75
2018-04-19T18:56:29.235Z,23.57
2018-04-19T18:58:56.817Z,23.92
2018-04-19T19:01:24.473Z,25.27
2018-04-19T19:03:52.106Z,23.15
2018-04-19T19:06:19.715Z,24.52
2018-04-19T19:08:47.617Z,23.93
2018-04-19T19:11:15.303Z,24.45
2018-04-19T19:13:42.960Z,23.10
2018-04-19T19:16:11.348Z,24.52
2018-04-19T19:18:51.021Z,21.75
2018-04-19T19:21:19.175Z,23.15
2018-04-19T19:23:46.941Z,23.40
2018-04-19T19:26:14.617Z,22.65
2018-04-19T19:28:42.262Z,22.50
2018-04-19T19:31:09.845Z,21.90
2018-04-19T19:33:37.461Z,23.50
2018-04-19T19:36:05.061Z,22.92
2018-04-19T19:38:32.625Z,22.08
2018-04-19T19:41:00.219Z,21.37
2018-04-19T19:43:28.557Z,21.58
2018-04-19T19:45:56.173Z,21.30
2018-04-19T19:48:23.747Z,21.23
2018-04-19T19:50:52.811Z,20.02
2018-04-19T19:53:21.408Z,21.45
2018-04-19T19:55:49.110Z,19.80
2018-04-19T19:58:16.740Z,19.87
2018-04-19T20:00:44.420Z,20.85
2018-04-19T20:03:13.257Z,19.42
2018-04-19T20:05:40.894Z,22.00
2018-04-19T20:08:08.502Z,19.27
2018-04-19T20:10:36.175Z,21.80
2018-04-19T20:13:03.943Z,19.90
2018-04-19T20:15:31.632Z,21.33
2018-04-19T20:17:59.293Z,20.92
2018-04-19T20:20:26.871Z,21.37
2018-04-19T20:22:54.542Z,21.20
2018-04-19T20:25:22.104Z,21.62
2018-04-19T20:27:49.700Z,21.42
2018-04-19T20:30:17.274Z,20.98
2018-04-19T20:32:45.005Z,21.00
2018-04-19T20:35:12.622Z,22.33
2018-04-19T20:37:40.996Z,23.12
2018-04-19T20:40:08.587Z,19.83
2018-04-19T20:42:37.062Z,23.05
2018-04-19T20:45:04.640Z,20.92
2018-04-19T20:47:32.210Z,19.85
2018-04-19T20:49:59.795Z,22.17
2018-04-19T20:52:27.373Z,20.50
2018-04-19T20:54:54.953Z,20.42
2018-04-19T20:57:23.287Z,19.58
2018-04-19T20:59:50.878Z,20.83
2018-04-19T21:02:18.485Z,18.98
2018-04-19T21:04:46.221Z,18.48
2018-04-19T21:07:13.824Z,18.77
2018-04-19T21:09:41.406Z,17.65
2018-04-19T21:12:08.961Z,18.70
2018-04-19T21:14:36.548Z,18.23
2018-04-19T21:17:04.809Z,18.00
2018-04-19T21:19:32.418Z,18.62
2018-04-19T21:22:00.075Z,18.73
2018-04-19T21:24:27.742Z,17.30
2018-04-19T21:26:55.330Z,16.87
2018-04-19T21:29:22.909Z,17.25
2018-04-19T21:31:51.299Z,16.45
2018-04-19T21:34:18.886Z,17.10
2018-04-19T21:36:47.292Z,18.00
2018-04-19T21:39:14.861Z,16.12
2018-04-19T21:41:42.484Z,15.90
2018-04-19T21:44:10.052Z,16.23
2018-04-19T21:46:37.639Z,16.23
2018-04-19T21:49:05.717Z,15.82
2018-04-19T21:51:34.037Z,14.15
2018-04-19T21:54:02.366Z,13.43
2018-04-19T21:56:29.946Z,14.10
2018-04-19T21:58:57.510Z,15.25
2018-04-19T22:01:25.103Z,15.80
2018-04-19T22:03:53.554Z,13.77
2018-04-19T22:06:21.121Z,14.50
2018-04-19T22:08:49.470Z,15.40
2018-04-19T22:11:17.145Z,14.02
2018-04-19T22:13:44.813Z,15.00
2018-04-19T22:16:12.387Z,17.12
2018-04-19T22:18:39.965Z,14.25
2018-04-19T22:21:08.354Z,14.18
2018-04-19T22:23:35.958Z,14.13
2018-04-19T22:26:04.312Z,13.35
2018-04-19T22:28:31.938Z,14.45
2018-04-19T22:30:59.570Z,13.13
2018-04-19T22:33:28.141Z,14.55
2018-04-19T22:35:55.720Z,14.60
2018-04-19T22:38:24.225Z,14.27
2018-04-19T22:40:52.235Z,14.27
2018-04-19T22:43:20.594Z,14.25
2018-04-19T22:45:48.173Z,13.25
2018-04-19T22:48:15.769Z,14.50
2018-04-19T22:50:43.329Z,14.25
2018-04-19T22:53:10.990Z,14.32
2018-04-19T22:55:38.612Z,13.52
2018-04-19T22:58:06.229Z,13.60
2018-04-19T23:00:33.838Z,13.00
2018-04-19T23:03:02.277Z,12.88
2018-04-19T23:05:30.160Z,13.57
2018-04-19T23:07:57.815Z,13.48
2018-04-19T23:10:25.463Z,13.43
2018-04-19T23:12:53.038Z,13.48
2018-04-19T23:15:21.497Z,13.20
2018-04-19T23:17:49.056Z,12.57
2018-04-19T23:20:16.633Z,13.18
2018-04-19T23:22:44.208Z,12.75
2018-04-19T23:25:11.876Z,13.30
2018-04-19T23:27:39.449Z,12.60
2018-04-19T23:30:07.037Z,13.60
2018-04-19T23:32:34.650Z,14.23
2018-04-19T23:35:02.988Z,12.88
2018-04-19T23:37:30.648Z,12.57
2018-04-19T23:39:58.305Z,12.00
2018-04-19T23:42:25.934Z,13.25
2018-04-19T23:44:54.309Z,13.02
2018-04-19T23:47:21.886Z,13.70
2018-04-19T23:49:49.551Z,13.68
2018-04-19T23:52:17.125Z,12.07
2018-04-19T23:54:44.685Z,11.93
2018-04-19T23:57:12.275Z,13.05
2018-04-19T23:59:39.844Z,11.57
